Time;durP1;ratioP1;P1;durP2;ratioP2;P2;SDS_P1;SDS_P2;PMS_P1;PMS_P2;Temp;Humidity;BMP_temperature;BMP_pressure;BME280_temperature;BME280_humidity;BME280_pressure;Samples;Min_cycle;Max_cycle;Signal;HPM_P1;HPM_P2
2022/01/16 00:04:27;;;;;;;320.65;252.77;;;19.30;41.10;;;;;;4782965;55;21118;-38
2022/01/16 00:09:28;;;;;;;322.52;252.65;;;19.30;41.10;;;;;;4738171;56;21567;-36
2022/01/16 00:14:30;;;;;;;315.80;249.30;;;19.30;41.10;;;;;;4737719;59;21475;-38
2022/01/16 00:19:31;;;;;;;313.08;247.65;;;19.30;41.00;;;;;;4737420;55;21504;-38
2022/01/16 00:24:34;;;;;;;312.20;247.18;;;19.30;40.90;;;;;;4737293;59;21022;-38
2022/01/16 00:29:35;;;;;;;316.95;248.62;;;19.30;40.90;;;;;;4740327;55;21512;-37
2022/01/16 00:34:36;;;;;;;317.05;250.43;;;19.30;40.90;;;;;;4752808;55;21070;-38
2022/01/16 00:39:37;;;;;;;302.10;234.82;;;19.30;40.90;;;;;;4770914;55;21109;-38
2022/01/16 00:44:37;;;;;;;305.50;239.95;;;19.30;40.90;;;;;;4765636;55;21390;-37
2022/01/16 00:49:39;;;;;;;301.40;233.25;;;19.30;40.80;;;;;;4738518;59;21599;-38
2022/01/16 00:54:44;;;;;;;314.63;246.35;;;19.30;40.80;;;;;;4793421;55;21491;-37
2022/01/16 00:59:45;;;;;;;312.90;244.48;;;19.30;40.70;;;;;;4737152;59;21542;-35
2022/01/16 01:04:47;;;;;;;308.10;241.10;;;19.30;40.70;;;;;;4747939;55;21010;-37
2022/01/16 01:09:48;;;;;;;317.60;248.35;;;19.30;40.70;;;;;;4761426;55;21468;-35
2022/01/16 01:15:09;;;;;;;308.58;244.95;;;19.30;40.70;;;;;;4738293;59;21025;-35
2022/01/16 01:20:14;;;;;;;310.60;242.55;;;19.30;40.60;;;;;;4737998;56;22011;-37
2022/01/16 01:25:16;;;;;;;305.37;240.95;;;19.30;40.50;;;;;;4737645;59;21610;-34
2022/01/16 01:30:20;;;;;;;307.87;238.25;;;19.30;40.50;;;;;;4772165;55;21487;-38
2022/01/16 01:35:22;;;;;;;300.60;236.93;;;19.30;40.50;;;;;;4768036;55;21552;-37
2022/01/16 01:40:25;;;;;;;294.00;230.02;;;19.30;40.40;;;;;;4739431;55;21037;-37
2022/01/16 01:51:06;;;;;;;296.98;231.77;;;19.30;40.40;;;;;;4738136;55;21543;-36
2022/01/16 01:56:11;;;;;;;297.30;229.80;;;19.30;40.30;;;;;;4753288;55;21564;-37
2022/01/16 02:01:12;;;;;;;289.90;222.63;;;19.30;40.30;;;;;;4738028;55;21070;-34
2022/01/16 02:06:19;;;;;;;288.92;225.05;;;19.30;40.30;;;;;;4747691;55;21582;-38
2022/01/16 02:11:26;;;;;;;289.83;228.57;;;19.30;40.20;;;;;;4738014;59;21029;-37
2022/01/16 02:32:46;;;;;;;283.50;218.48;;;19.20;40.10;;;;;;4763545;55;21002;-35
2022/01/16 02:37:49;;;;;;;287.30;223.13;;;19.30;40.10;;;;;;4738855;55;21468;-35
2022/01/16 02:42:52;;;;;;;279.95;220.48;;;19.20;40.00;;;;;;4807692;55;21519;-36
2022/01/16 02:47:54;;;;;;;281.42;220.68;;;19.20;40.00;;;;;;4737601;59;22174;-37
2022/01/16 02:52:56;;;;;;;281.73;217.07;;;19.20;39.90;;;;;;4754240;55;21575;-36
2022/01/16 02:57:56;;;;;;;273.45;212.60;;;19.30;39.90;;;;;;4760164;55;21043;-34
2022/01/16 03:02:57;;;;;;;276.60;212.45;;;19.20;39.90;;;;;;4790849;55;21050;-38
2022/01/16 03:07:58;;;;;;;268.35;208.05;;;19.30;39.90;;;;;;4754752;55;21101;-38
2022/01/16 03:12:59;;;;;;;264.60;206.60;;;19.20;39.80;;;;;;4741675;55;21516;-38
2022/01/16 03:23:46;;;;;;;256.75;202.38;;;19.20;39.80;;;;;;4783459;55;21082;-36
2022/01/16 03:28:47;;;;;;;264.42;203.82;;;19.20;39.70;;;;;;4752143;55;21013;-36
2022/01/16 03:33:48;;;;;;;264.45;203.68;;;19.20;39.70;;;;;;4737359;59;21005;-35
2022/01/16 03:38:49;;;;;;;252.70;196.12;;;19.20;39.70;;;;;;4738888;55;21050;-35
2022/01/16 03:43:54;;;;;;;255.55;198.18;;;19.20;39.60;;;;;;4787231;55;21105;-35
2022/01/16 03:48:55;;;;;;;251.85;193.00;;;19.20;39.60;;;;;;4780272;55;21041;-38
2022/01/16 03:53:55;;;;;;;253.05;192.68;;;19.20;39.50;;;;;;4737868;55;21754;-37
2022/01/16 03:58:56;;;;;;;240.05;177.70;;;19.20;39.50;;;;;;4738882;55;21117;-37
2022/01/16 04:03:57;;;;;;;250.40;191.52;;;19.20;39.50;;;;;;4738149;55;21063;-38
2022/01/16 04:08:59;;;;;;;238.87;183.00;;;19.20;39.50;;;;;;4742910;55;21026;-38
2022/01/16 04:14:09;;;;;;;250.57;191.50;;;19.20;39.40;;;;;;4755957;55;22116;-36
2022/01/16 04:19:11;;;;;;;240.25;183.95;;;19.20;39.40;;;;;;4769059;55;21516;-38
2022/01/16 04:24:12;;;;;;;243.60;184.82;;;19.20;39.40;;;;;;4742199;55;21563;-36
2022/01/16 04:29:13;;;;;;;240.15;182.20;;;19.20;39.30;;;;;;4741162;55;21014;-37
2022/01/16 04:34:13;;;;;;;235.68;181.77;;;19.20;39.40;;;;;;4742388;55;21090;-36
2022/01/16 04:39:20;;;;;;;237.20;181.60;;;19.20;39.30;;;;;;4742609;55;21512;-37
2022/01/16 04:44:21;;;;;;;234.10;176.15;;;19.20;39.30;;;;;;4741724;55;21869;-36
2022/01/16 04:49:22;;;;;;;228.75;170.10;;;19.20;39.10;;;;;;4779709;55;21006;-35
2022/01/16 04:54:22;;;;;;;224.35;164.62;;;19.20;39.10;;;;;;4743338;55;21821;-35
2022/01/16 04:59:24;;;;;;;227.73;174.80;;;19.20;39.10;;;;;;4737070;55;21081;-35
2022/01/16 05:04:24;;;;;;;224.48;168.75;;;19.20;39.10;;;;;;4764824;55;21013;-35
2022/01/16 05:09:25;;;;;;;227.80;170.65;;;19.20;39.30;;;;;;4750556;55;21472;-35
2022/01/16 05:19:46;;;;;;;219.00;165.65;;;19.20;39.00;;;;;;4768550;55;21145;-36
2022/01/16 05:24:47;;;;;;;215.32;157.40;;;19.20;39.10;;;;;;4779957;55;21038;-37
2022/01/16 05:29:48;;;;;;;218.00;164.70;;;19.20;39.00;;;;;;4769755;55;21511;-36
2022/01/16 05:34:49;;;;;;;217.25;161.90;;;19.20;39.00;;;;;;4738877;55;21012;-37
2022/01/16 05:39:50;;;;;;;216.50;159.63;;;19.20;38.90;;;;;;4738847;55;21584;-34
2022/01/16 05:44:51;;;;;;;204.68;155.30;;;19.10;38.90;;;;;;4778757;55;21018;-34
2022/01/16 05:49:51;;;;;;;204.87;157.10;;;19.20;38.80;;;;;;4738559;59;21021;-36
2022/01/16 05:54:52;;;;;;;203.55;153.23;;;19.10;38.70;;;;;;4757519;55;20998;-30
2022/01/16 05:59:58;;;;;;;203.02;151.23;;;19.20;39.00;;;;;;4756557;55;21026;-33
2022/01/16 06:04:59;;;;;;;203.62;152.55;;;19.10;38.70;;;;;;4778202;55;21999;-37
2022/01/16 06:10:00;;;;;;;196.57;148.70;;;19.10;38.70;;;;;;4741298;55;21117;-38
2022/01/16 06:15:00;;;;;;;188.55;143.32;;;19.10;38.60;;;;;;4754968;55;21362;-36
2022/01/16 06:20:02;;;;;;;197.80;148.70;;;19.10;38.70;;;;;;4737233;59;21607;-37
2022/01/16 06:25:04;;;;;;;190.85;146.32;;;19.10;38.60;;;;;;4746606;55;21118;-37
2022/01/16 06:30:07;;;;;;;193.52;144.45;;;19.10;38.60;;;;;;4737574;59;21128;-35
2022/01/16 06:35:10;;;;;;;191.23;147.10;;;19.10;38.60;;;;;;4752181;55;21579;-36
2022/01/16 06:40:12;;;;;;;190.68;143.45;;;19.10;38.70;;;;;;4747225;55;21065;-34
2022/01/16 06:45:13;;;;;;;185.98;139.57;;;19.10;38.50;;;;;;4754778;55;21611;-37
2022/01/16 06:50:14;;;;;;;186.65;142.10;;;19.10;38.50;;;;;;4775476;55;21073;-35
2022/01/16 06:55:15;;;;;;;184.65;140.73;;;19.10;38.40;;;;;;4742028;55;21018;-36
2022/01/16 07:00:16;;;;;;;181.20;136.50;;;19.10;38.40;;;;;;4736792;55;21081;-36
2022/01/16 07:05:18;;;;;;;189.00;142.37;;;19.10;38.50;;;;;;4755449;55;20993;-38
2022/01/16 07:10:20;;;;;;;172.45;133.37;;;19.10;38.40;;;;;;4746219;55;21600;-34
2022/01/16 07:15:21;;;;;;;178.07;135.00;;;19.10;38.30;;;;;;4746268;55;21484;-36
2022/01/16 07:20:21;;;;;;;182.82;139.12;;;19.10;38.40;;;;;;4768497;55;21022;-38
2022/01/16 07:25:22;;;;;;;177.57;134.63;;;19.10;38.40;;;;;;4763104;55;21010;-38
2022/01/16 07:30:23;;;;;;;176.73;133.73;;;19.10;38.20;;;;;;4757820;55;21010;-36
2022/01/16 07:35:24;;;;;;;166.82;127.70;;;19.10;39.00;;;;;;4741629;55;21002;-37
2022/01/16 07:40:26;;;;;;;174.02;134.10;;;19.10;38.30;;;;;;4755288;55;21079;-36
2022/01/16 07:45:27;;;;;;;168.60;127.68;;;19.10;38.20;;;;;;4772264;55;21019;-39
2022/01/16 07:50:28;;;;;;;172.90;133.55;;;19.10;38.20;;;;;;4770390;55;20994;-39
2022/01/16 07:55:29;;;;;;;171.25;129.02;;;19.10;38.20;;;;;;4737479;59;21515;-36
2022/01/16 08:00:31;;;;;;;168.82;130.95;;;19.10;38.20;;;;;;4774971;55;21044;-38
2022/01/16 08:05:34;;;;;;;164.77;126.55;;;19.10;38.10;;;;;;4822508;55;21479;-35
2022/01/16 08:10:35;;;;;;;168.02;128.60;;;19.10;38.10;;;;;;4745169;55;21500;-37
2022/01/16 08:15:36;;;;;;;165.90;127.62;;;19.10;38.20;;;;;;4738121;55;20993;-34
2022/01/16 08:20:37;;;;;;;173.50;134.00;;;19.10;38.10;;;;;;4786474;55;21465;-32
2022/01/16 08:25:38;;;;;;;165.73;126.85;;;19.10;38.10;;;;;;4738328;59;21117;-35
2022/01/16 08:30:39;;;;;;;174.27;133.05;;;19.10;38.00;;;;;;4739923;55;21098;-37
2022/01/16 08:35:40;;;;;;;161.77;125.00;;;19.10;38.10;;;;;;4746384;55;21002;-37
2022/01/16 08:40:41;;;;;;;167.70;128.07;;;19.10;38.00;;;;;;4747091;55;21002;-33
2022/01/16 08:45:41;;;;;;;160.55;118.85;;;19.10;38.00;;;;;;4796855;55;21492;-38
2022/01/16 08:50:42;;;;;;;161.95;124.15;;;19.10;38.10;;;;;;4772740;55;21592;-35
2022/01/16 08:55:43;;;;;;;161.30;124.32;;;19.10;38.10;;;;;;4764125;55;21061;-38
2022/01/16 09:00:46;;;;;;;163.27;127.55;;;19.10;38.00;;;;;;4782108;55;21006;-38
2022/01/16 09:05:47;;;;;;;162.70;128.48;;;19.10;38.00;;;;;;4737920;59;21511;-39
2022/01/16 09:10:48;;;;;;;157.40;122.32;;;19.10;38.00;;;;;;4770993;55;21101;-38
2022/01/16 09:15:51;;;;;;;166.37;127.55;;;19.20;38.70;;;;;;4759865;55;21026;-38
2022/01/16 09:20:52;;;;;;;167.32;129.87;;;19.10;38.00;;;;;;4795373;55;21085;-34
2022/01/16 09:25:53;;;;;;;170.32;131.35;;;19.10;38.10;;;;;;4800156;55;21022;-39
2022/01/16 09:30:54;;;;;;;171.45;132.68;;;19.10;38.10;;;;;;4744392;55;21468;-38
2022/01/16 09:35:55;;;;;;;173.65;133.23;;;19.20;38.10;;;;;;4759195;55;21435;-37
2022/01/16 09:40:56;;;;;;;171.15;131.95;;;19.10;38.00;;;;;;4749216;55;21111;-38
2022/01/16 09:45:57;;;;;;;175.40;136.30;;;19.20;38.10;;;;;;4761216;55;20986;-38
2022/01/16 09:50:58;;;;;;;171.10;132.87;;;19.10;38.10;;;;;;4738463;55;21494;-37
2022/01/16 09:55:59;;;;;;;168.98;132.85;;;19.20;38.10;;;;;;4739460;55;21134;-38
2022/01/16 10:01:00;;;;;;;179.75;135.57;;;19.20;38.10;;;;;;4749543;55;21081;-38
2022/01/16 10:06:13;;;;;;;176.35;132.90;;;19.20;38.10;;;;;;4742415;55;21022;-36
2022/01/16 10:11:35;;;;;;;174.55;133.25;;;19.20;38.20;;;;;;4808059;55;21512;-37
2022/01/16 10:16:40;;;;;;;176.05;134.00;;;19.20;38.20;;;;;;4748746;55;21670;-37
2022/01/16 10:21:42;;;;;;;173.50;135.88;;;19.20;38.20;;;;;;4784027;55;21141;-38
2022/01/16 10:26:48;;;;;;;180.82;139.37;;;19.20;38.20;;;;;;4761508;55;21484;-34
2022/01/16 10:31:50;;;;;;;178.87;138.45;;;19.20;38.20;;;;;;4757571;55;21077;-37
2022/01/16 10:36:54;;;;;;;181.18;141.30;;;19.20;38.30;;;;;;4755091;55;21524;-35
2022/01/16 10:42:16;;;;;;;176.98;140.15;;;19.20;38.30;;;;;;4756523;55;21525;-38
2022/01/16 10:49:15;;;;;;;188.65;141.60;;;19.20;38.30;;;;;;4764816;54;20990;-37
2022/01/16 10:54:34;;;;;;;182.88;141.02;;;19.20;38.40;;;;;;4738403;59;21564;-37
2022/01/16 10:59:35;;;;;;;183.85;140.12;;;19.20;38.40;;;;;;4778917;55;21361;-38
2022/01/16 11:04:36;;;;;;;190.38;146.37;;;19.20;38.40;;;;;;4752853;55;21086;-38
2022/01/16 11:09:37;;;;;;;191.23;148.55;;;19.30;38.50;;;;;;4756373;55;21562;-37
2022/01/16 11:14:38;;;;;;;192.60;149.20;;;19.30;38.50;;;;;;4805035;55;21464;-36
2022/01/16 11:19:39;;;;;;;196.90;149.70;;;19.20;38.50;;;;;;4746931;55;21014;-34
2022/01/16 11:24:58;;;;;;;189.68;147.18;;;19.30;38.50;;;;;;4771358;55;21058;-34
2022/01/16 11:30:00;;;;;;;186.20;146.32;;;19.30;38.60;;;;;;4738447;59;21567;-37
2022/01/16 11:35:01;;;;;;;188.05;147.77;;;19.30;38.60;;;;;;4753144;55;21029;-36
2022/01/16 11:40:24;;;;;;;193.62;150.52;;;19.30;38.70;;;;;;4751818;55;21074;-37
2022/01/16 11:45:25;;;;;;;194.57;150.85;;;19.30;38.70;;;;;;4743038;55;21508;-38
2022/01/16 11:50:34;;;;;;;197.65;153.57;;;19.30;38.80;;;;;;4738084;55;21014;-39
2022/01/16 11:55:35;;;;;;;197.23;150.80;;;19.30;38.80;;;;;;4761450;55;21093;-37
2022/01/16 12:00:43;;;;;;;194.70;147.52;;;19.30;38.80;;;;;;4753493;55;21010;-38
2022/01/16 12:05:44;;;;;;;198.70;152.00;;;19.30;38.90;;;;;;4744299;55;21460;-38
2022/01/16 12:10:47;;;;;;;194.95;150.93;;;19.30;38.90;;;;;;4747055;55;21469;-37
2022/01/16 12:15:48;;;;;;;201.85;155.12;;;19.30;39.10;;;;;;4737490;55;21046;-37
2022/01/16 12:20:49;;;;;;;199.32;157.10;;;19.30;39.00;;;;;;4742522;55;21027;-30
2022/01/16 12:25:57;;;;;;;195.93;154.82;;;19.30;39.10;;;;;;4738491;59;20989;-35
2022/01/16 12:31:03;;;;;;;208.20;160.45;;;19.30;39.10;;;;;;4737917;59;21488;-35
2022/01/16 12:36:11;;;;;;;206.90;160.20;;;19.30;39.20;;;;;;4762203;55;21614;-37
2022/01/16 12:41:41;;;;;;;209.02;160.02;;;19.30;39.20;;;;;;4738244;59;21021;-37
2022/01/16 12:46:51;;;;;;;211.57;163.48;;;19.30;39.20;;;;;;4763290;55;21034;-38
2022/01/16 12:51:54;;;;;;;205.25;159.48;;;19.30;39.30;;;;;;4769029;55;21014;-37
2022/01/16 12:57:00;;;;;;;208.00;166.32;;;19.30;39.30;;;;;;4777685;55;21021;-35
2022/01/16 13:02:02;;;;;;;210.73;165.25;;;19.30;39.40;;;;;;4740703;55;21021;-37
2022/01/16 13:07:15;;;;;;;206.70;161.40;;;19.30;39.40;;;;;;4751986;55;21014;-37
2022/01/16 13:12:16;;;;;;;204.90;161.07;;;19.30;39.50;;;;;;4738202;59;21516;-35
2022/01/16 13:17:18;;;;;;;212.48;168.07;;;19.30;39.50;;;;;;4741732;55;21137;-35
2022/01/16 13:22:23;;;;;;;210.27;162.05;;;19.30;39.50;;;;;;4756902;55;21065;-35
2022/01/16 13:27:31;;;;;;;213.85;168.27;;;19.30;39.60;;;;;;4748552;55;21559;-34
2022/01/16 13:32:37;;;;;;;211.95;166.48;;;19.30;39.60;;;;;;4808432;55;21504;-37
2022/01/16 13:37:38;;;;;;;221.57;172.07;;;19.20;39.60;;;;;;4763780;55;21066;-38
2022/01/16 13:42:53;;;;;;;210.32;166.55;;;19.30;39.70;;;;;;4759937;55;21010;-38
2022/01/16 13:48:59;;;;;;;217.80;173.02;;;19.30;39.70;;;;;;4743667;55;21528;-35
2022/01/16 13:54:11;;;;;;;216.95;171.10;;;19.30;39.70;;;;;;4753019;55;21065;-35
2022/01/16 13:59:12;;;;;;;223.52;175.77;;;19.30;39.70;;;;;;4748848;55;21073;-37
2022/01/16 14:04:15;;;;;;;230.68;178.18;;;19.30;39.70;;;;;;4784139;55;21006;-36
2022/01/16 14:09:17;;;;;;;221.52;175.65;;;19.30;39.70;;;;;;4761751;55;21596;-36
2022/01/16 14:14:20;;;;;;;222.02;175.90;;;19.30;39.80;;;;;;4763584;55;21030;-36
2022/01/16 14:19:25;;;;;;;223.75;180.25;;;19.30;39.80;;;;;;4736920;55;21120;-35
2022/01/16 14:24:31;;;;;;;224.55;177.05;;;19.30;39.90;;;;;;4798405;55;21588;-39
2022/01/16 14:29:32;;;;;;;222.20;178.40;;;19.30;39.90;;;;;;4785686;55;21002;-37
2022/01/16 14:34:33;;;;;;;226.52;180.05;;;19.30;40.00;;;;;;4809397;55;21992;-35
2022/01/16 14:39:35;;;;;;;217.68;170.73;;;19.30;40.00;;;;;;4737335;59;21052;-35
2022/01/16 14:44:38;;;;;;;225.80;180.93;;;19.30;40.00;;;;;;4775521;55;21053;-36
2022/01/16 14:49:41;;;;;;;218.02;171.35;;;19.30;40.00;;;;;;4747993;55;21555;-35
2022/01/16 14:54:44;;;;;;;232.37;179.70;;;19.30;40.00;;;;;;4755098;55;21070;-36
2022/01/16 14:59:45;;;;;;;229.95;182.30;;;19.30;40.10;;;;;;4752585;55;22160;-37
2022/01/16 15:04:46;;;;;;;227.90;182.90;;;19.30;40.00;;;;;;4744830;55;21092;-38
2022/01/16 15:09:47;;;;;;;227.07;178.60;;;19.30;40.00;;;;;;4739876;55;21599;-36
2022/01/16 15:14:48;;;;;;;220.32;174.73;;;19.30;40.10;;;;;;4749428;55;21105;-38
2022/01/16 15:19:51;;;;;;;222.70;180.52;;;19.30;40.20;;;;;;4739765;55;22041;-37
2022/01/16 15:24:54;;;;;;;228.73;178.85;;;19.30;40.10;;;;;;4758670;55;21646;-41
2022/01/16 15:29:55;;;;;;;228.82;181.32;;;19.30;40.10;;;;;;4742312;55;21087;-36
2022/01/16 15:34:55;;;;;;;207.65;164.50;;;19.30;40.20;;;;;;4799025;55;21053;-37
2022/01/16 15:39:57;;;;;;;228.75;184.93;;;19.30;40.20;;;;;;4746230;55;21085;-38
2022/01/16 15:44:58;;;;;;;227.77;181.75;;;19.30;40.20;;;;;;4737117;59;21491;-36
2022/01/16 15:49:59;;;;;;;223.38;177.12;;;19.30;40.20;;;;;;4739689;55;21131;-37
2022/01/16 15:54:59;;;;;;;227.25;178.87;;;19.30;40.20;;;;;;4738294;59;21508;-38
2022/01/16 16:00:03;;;;;;;228.32;186.80;;;19.30;40.30;;;;;;4749267;55;21571;-34
2022/01/16 16:05:04;;;;;;;228.98;176.85;;;19.30;40.20;;;;;;4753614;55;21600;-36
2022/01/16 16:10:07;;;;;;;228.20;181.48;;;19.20;40.20;;;;;;4772627;55;21049;-31
2022/01/16 16:15:09;;;;;;;235.73;187.82;;;19.30;40.20;;;;;;4752775;55;21022;-39
2022/01/16 16:20:10;;;;;;;228.23;177.27;;;19.30;40.20;;;;;;4767800;55;21145;-36
2022/01/16 16:25:16;;;;;;;243.95;195.12;;;19.30;40.50;;;;;;4743988;55;21061;-36
2022/01/16 16:30:18;;;;;;;244.73;191.93;;;19.20;40.30;;;;;;4785984;55;21513;-35
2022/01/16 16:35:23;;;;;;;239.75;195.70;;;19.20;40.30;;;;;;4737363;59;20998;-36
2022/01/16 16:40:26;;;;;;;242.75;194.43;;;19.20;40.30;;;;;;4738280;59;21555;-38
2022/01/16 16:45:27;;;;;;;240.43;192.77;;;19.20;40.20;;;;;;4766022;55;21057;-34
2022/01/16 16:50:31;;;;;;;230.43;184.60;;;19.20;40.30;;;;;;4751106;55;20994;-39
2022/01/16 16:55:32;;;;;;;237.18;185.68;;;19.20;40.30;;;;;;4746654;55;21548;-37
2022/01/16 17:00:33;;;;;;;239.85;194.25;;;19.20;40.30;;;;;;4776901;55;21529;-38
2022/01/16 17:05:35;;;;;;;245.23;196.82;;;19.20;40.30;;;;;;4753985;55;21078;-33
2022/01/16 17:10:36;;;;;;;239.25;192.23;;;19.20;40.30;;;;;;4769540;55;21507;-36
2022/01/16 17:15:37;;;;;;;236.35;195.38;;;19.20;40.30;;;;;;4742146;55;21017;-38
2022/01/16 17:20:38;;;;;;;238.73;191.30;;;19.20;40.40;;;;;;4746029;55;21113;-37
2022/01/16 17:25:39;;;;;;;241.20;194.68;;;19.20;40.30;;;;;;4747095;55;21117;-36
2022/01/16 17:30:42;;;;;;;239.98;193.82;;;19.20;40.30;;;;;;4746541;55;21148;-36
2022/01/16 17:35:46;;;;;;;234.48;188.02;;;19.20;40.30;;;;;;4770636;55;21085;-36
2022/01/16 17:40:47;;;;;;;245.40;195.50;;;19.20;40.40;;;;;;4737882;55;21348;-37
2022/01/16 17:45:48;;;;;;;245.70;197.87;;;19.20;40.30;;;;;;4739097;55;21065;-40
2022/01/16 17:50:48;;;;;;;248.32;200.55;;;19.20;40.30;;;;;;4780153;55;21457;-36
2022/01/16 17:55:49;;;;;;;250.13;201.35;;;19.20;40.30;;;;;;4746477;55;21054;-34
2022/01/16 18:00:50;;;;;;;241.68;193.62;;;19.20;40.40;;;;;;4740936;55;20994;-39
2022/01/16 18:05:52;;;;;;;249.12;199.90;;;19.20;40.30;;;;;;4765788;55;21013;-38
2022/01/16 18:10:52;;;;;;;253.27;200.95;;;19.20;40.30;;;;;;4741293;55;21106;-37
2022/01/16 18:15:53;;;;;;;247.00;202.18;;;19.20;40.30;;;;;;4756556;55;21070;-37
2022/01/16 18:20:55;;;;;;;236.45;185.02;;;19.20;40.30;;;;;;4791800;55;21034;-38
2022/01/16 18:25:56;;;;;;;244.25;197.93;;;19.20;40.30;;;;;;4738377;55;21022;-37
2022/01/16 18:30:58;;;;;;;256.50;204.70;;;19.20;40.30;;;;;;4740354;55;21045;-39
2022/01/16 18:35:59;;;;;;;261.23;209.12;;;19.20;40.30;;;;;;4775580;55;21212;-37
2022/01/16 18:41:00;;;;;;;239.43;188.50;;;19.20;40.30;;;;;;4738744;55;21846;-36
2022/01/16 18:46:02;;;;;;;255.68;206.75;;;19.20;40.30;;;;;;4766275;55;21505;-37
2022/01/16 18:51:04;;;;;;;252.45;204.13;;;19.20;40.30;;;;;;4745536;55;21472;-35
2022/01/16 18:56:05;;;;;;;258.75;208.13;;;19.20;40.30;;;;;;4763385;55;21073;-33
2022/01/16 19:01:06;;;;;;;263.08;206.27;;;19.20;40.30;;;;;;4764469;55;20998;-32
2022/01/16 19:06:07;;;;;;;265.33;214.23;;;19.20;40.30;;;;;;4761532;55;21010;-33
2022/01/16 19:11:08;;;;;;;261.87;210.73;;;19.20;40.30;;;;;;4800642;55;21010;-36
2022/01/16 19:16:10;;;;;;;263.77;209.23;;;19.20;40.30;;;;;;4739499;55;21068;-38
2022/01/16 19:21:11;;;;;;;272.02;215.45;;;19.20;40.30;;;;;;4763994;55;21090;-32
2022/01/16 19:26:12;;;;;;;263.75;210.52;;;19.20;40.30;;;;;;4778423;55;21038;-37
2022/01/16 19:31:14;;;;;;;266.17;211.05;;;19.20;40.30;;;;;;4763598;55;21004;-39
2022/01/16 19:36:19;;;;;;;265.37;216.93;;;19.20;40.30;;;;;;4741536;55;22631;-37
2022/01/16 19:41:20;;;;;;;270.85;215.73;;;19.20;40.30;;;;;;4776382;55;21504;-36
2022/01/16 19:46:23;;;;;;;276.00;221.15;;;19.20;40.30;;;;;;4755907;55;21082;-35
2022/01/16 19:51:26;;;;;;;275.62;221.35;;;19.20;40.30;;;;;;4754432;55;21489;-37
2022/01/16 19:56:27;;;;;;;269.23;214.07;;;19.20;40.30;;;;;;4738014;59;21630;-37
2022/01/16 20:01:28;;;;;;;271.20;217.70;;;19.20;40.30;;;;;;4748626;55;21034;-38
2022/01/16 20:06:30;;;;;;;272.27;214.68;;;19.10;40.20;;;;;;4802261;55;21508;-37
2022/01/16 20:11:32;;;;;;;267.23;213.43;;;19.10;40.20;;;;;;4812803;55;21002;-36
2022/01/16 20:16:33;;;;;;;283.70;226.00;;;19.10;40.20;;;;;;4760546;55;21505;-37
2022/01/16 20:21:34;;;;;;;278.33;221.23;;;19.20;40.30;;;;;;4749265;55;21469;-33
2022/01/16 20:26:35;;;;;;;266.30;209.65;;;19.20;40.20;;;;;;4737426;59;21113;-34
2022/01/16 20:31:36;;;;;;;277.55;222.57;;;19.10;40.10;;;;;;4738504;59;21093;-38
2022/01/16 20:36:37;;;;;;;275.30;218.73;;;19.10;40.20;;;;;;4737582;59;21030;-37
2022/01/16 20:41:38;;;;;;;273.95;215.12;;;19.10;40.20;;;;;;4749429;55;21069;-36
2022/01/16 20:46:42;;;;;;;291.92;231.55;;;19.10;40.20;;;;;;4749412;55;21564;-33
2022/01/16 20:51:43;;;;;;;286.75;229.95;;;19.10;40.10;;;;;;4754058;55;21101;-40
2022/01/16 20:56:44;;;;;;;272.98;214.70;;;19.10;40.10;;;;;;4745174;55;21783;-35
2022/01/16 21:01:45;;;;;;;282.10;222.27;;;19.10;40.10;;;;;;4737571;59;21086;-37
2022/01/16 21:06:47;;;;;;;283.67;224.70;;;19.10;40.10;;;;;;4746178;55;21503;-38
2022/01/16 21:11:48;;;;;;;293.15;232.65;;;19.10;40.10;;;;;;4763338;55;21490;-38
2022/01/16 21:16:51;;;;;;;285.52;227.85;;;19.10;40.10;;;;;;4773259;55;21292;-38
2022/01/16 21:21:52;;;;;;;270.52;211.80;;;19.10;40.00;;;;;;4767468;55;21559;-37
2022/01/16 21:26:53;;;;;;;287.90;228.45;;;19.10;40.10;;;;;;4737804;59;21017;-38
2022/01/16 21:31:55;;;;;;;290.02;228.80;;;19.10;40.00;;;;;;4751214;55;21512;-37
2022/01/16 21:36:55;;;;;;;297.35;236.07;;;19.10;40.00;;;;;;4767124;55;21101;-37
2022/01/16 21:41:56;;;;;;;278.90;219.05;;;19.10;39.90;;;;;;4754824;55;21085;-39
2022/01/16 21:46:57;;;;;;;284.52;221.05;;;19.10;39.90;;;;;;4738041;59;21026;-35
2022/01/16 21:52:01;;;;;;;283.90;224.90;;;19.10;40.10;;;;;;4753548;55;21152;-33
2022/01/16 21:57:03;;;;;;;297.70;237.80;;;19.10;40.00;;;;;;4749794;55;21033;-35
2022/01/16 22:02:03;;;;;;;299.12;235.52;;;19.10;39.90;;;;;;4774913;55;21078;-35
2022/01/16 22:07:05;;;;;;;297.08;235.63;;;19.10;39.90;;;;;;4749748;55;21078;-35
2022/01/16 22:12:10;;;;;;;302.33;236.20;;;19.10;39.80;;;;;;4750238;55;21524;-38
2022/01/16 22:17:12;;;;;;;298.73;237.32;;;19.10;39.80;;;;;;4742343;55;21500;-34
2022/01/16 22:22:13;;;;;;;297.42;235.25;;;19.10;39.70;;;;;;4768102;55;21568;-38
2022/01/16 22:27:14;;;;;;;300.90;235.02;;;19.10;39.70;;;;;;4748009;55;21002;-33
2022/01/16 22:32:18;;;;;;;301.20;241.05;;;19.10;39.70;;;;;;4786084;55;21500;-37
2022/01/16 22:37:23;;;;;;;311.48;247.45;;;19.10;40.30;;;;;;4768858;55;21041;-37
2022/01/16 22:42:24;;;;;;;302.95;239.60;;;19.10;39.70;;;;;;4751898;55;21487;-35
2022/01/16 22:47:25;;;;;;;294.33;233.52;;;19.10;39.60;;;;;;4752752;55;21050;-38
2022/01/16 22:52:29;;;;;;;306.52;242.65;;;19.10;39.60;;;;;;4779156;55;20994;-35
2022/01/16 22:57:30;;;;;;;300.77;234.40;;;19.10;39.70;;;;;;4739015;55;21065;-37
2022/01/16 23:02:31;;;;;;;290.27;223.23;;;19.10;39.60;;;;;;4737803;59;21050;-36
2022/01/16 23:07:32;;;;;;;302.00;235.10;;;19.10;39.70;;;;;;4767493;55;21037;-38
2022/01/16 23:12:34;;;;;;;297.08;231.15;;;19.10;39.70;;;;;;4782107;55;21599;-38
2022/01/16 23:17:35;;;;;;;305.98;238.68;;;19.00;39.60;;;;;;4737345;55;21496;-37
2022/01/16 23:22:36;;;;;;;299.37;232.07;;;19.10;39.60;;;;;;4782785;55;21081;-37
2022/01/16 23:27:37;;;;;;;308.15;240.07;;;19.10;39.50;;;;;;4745990;55;21014;-37
2022/01/16 23:32:41;;;;;;;305.10;238.12;;;19.10;39.70;;;;;;4752669;55;21014;-39
2022/01/16 23:37:42;;;;;;;302.90;237.55;;;19.00;39.40;;;;;;4737541;59;21499;-34
2022/01/16 23:42:50;;;;;;;308.50;239.68;;;19.00;39.40;;;;;;4738175;59;21061;-38
2022/01/16 23:47:51;;;;;;;300.45;235.82;;;19.10;39.40;;;;;;4762540;55;21504;-35
2022/01/16 23:52:53;;;;;;;310.42;243.25;;;19.10;39.50;;;;;;4774361;55;20994;-38
2022/01/16 23:57:54;;;;;;;302.87;236.70;;;19.10;39.40;;;;;;4755065;55;21058;-35
